Time;durP1;ratioP1;P1;durP2;ratioP2;P2;SDS_P1;SDS_P2;PMS_P1;PMS_P2;Temp;Humidity;BMP_temperature;BMP_pressure;BME280_temperature;BME280_humidity;BME280_pressure;Samples;Min_cycle;Max_cycle;Signal;HPM_P1;HPM_P2
2021/08/16 00:01:39;;;;;;;3.20;2.40;;;22.40;99.90;;;;;;5135582;28;20426;-59
2021/08/16 00:04:06;;;;;;;2.30;2.00;;;22.40;99.90;;;;;;5135006;28;20416;-59
2021/08/16 00:06:32;;;;;;;2.70;2.00;;;22.30;99.90;;;;;;5134737;27;20465;-59
2021/08/16 00:09:01;;;;;;;3.35;2.20;;;22.30;99.90;;;;;;5135019;28;20418;-59
2021/08/16 00:11:28;;;;;;;3.10;2.08;;;22.30;99.90;;;;;;5135125;28;20924;-59
2021/08/16 00:13:55;;;;;;;3.28;1.80;;;22.30;99.90;;;;;;5135724;28;20491;-59
2021/08/16 00:16:21;;;;;;;3.03;1.90;;;22.40;99.90;;;;;;5134884;28;20522;-59
2021/08/16 00:18:48;;;;;;;3.10;2.45;;;22.50;99.90;;;;;;5134893;27;20414;-59
2021/08/16 00:21:15;;;;;;;2.10;1.90;;;22.60;99.90;;;;;;5137616;27;20429;-59
2021/08/16 00:23:42;;;;;;;3.53;1.90;;;22.70;99.90;;;;;;5138477;27;20409;-59
2021/08/16 00:26:12;;;;;;;2.65;1.50;;;22.70;99.90;;;;;;5139083;27;20422;-59
2021/08/16 00:28:40;;;;;;;3.45;1.73;;;22.80;99.90;;;;;;5139350;27;20517;-59
2021/08/16 00:31:06;;;;;;;2.30;1.55;;;22.90;99.90;;;;;;5139361;27;20414;-59
2021/08/16 00:33:33;;;;;;;2.38;1.70;;;22.90;99.90;;;;;;5138998;27;20479;-59
2021/08/16 00:36:00;;;;;;;2.20;1.73;;;23.00;99.90;;;;;;5137959;27;20713;-60
2021/08/16 00:38:28;;;;;;;2.45;1.73;;;23.00;99.90;;;;;;5136974;27;20710;-60
2021/08/16 00:40:55;;;;;;;4.28;2.10;;;23.10;99.90;;;;;;5135483;27;20417;-59
2021/08/16 00:43:23;;;;;;;2.80;1.60;;;23.10;99.90;;;;;;5135942;27;20411;-59
2021/08/16 00:45:50;;;;;;;4.20;2.20;;;23.20;99.90;;;;;;5136538;27;20421;-58
2021/08/16 00:48:17;;;;;;;2.45;1.88;;;23.20;99.90;;;;;;5139172;27;20422;-60
2021/08/16 00:50:45;;;;;;;2.25;2.05;;;23.20;99.90;;;;;;5137976;27;20418;-59
2021/08/16 00:53:13;;;;;;;3.30;2.00;;;23.10;99.90;;;;;;5137141;27;20725;-59
2021/08/16 00:55:40;;;;;;;3.70;1.83;;;23.00;99.90;;;;;;5136776;27;20407;-59
2021/08/16 00:58:07;;;;;;;2.80;1.70;;;23.00;99.90;;;;;;5137224;27;20424;-58
2021/08/16 01:00:36;;;;;;;2.60;1.80;;;23.00;99.90;;;;;;5137787;27;20414;-58
2021/08/16 01:03:02;;;;;;;2.50;1.80;;;23.10;99.90;;;;;;5138464;27;20418;-57
2021/08/16 01:05:29;;;;;;;2.10;1.80;;;23.20;99.90;;;;;;5138555;27;20796;-59
2021/08/16 01:07:56;;;;;;;1.80;1.40;;;23.20;99.90;;;;;;5138906;27;20422;-57
2021/08/16 01:10:23;;;;;;;1.90;1.60;;;23.20;99.90;;;;;;5138608;27;20421;-59
2021/08/16 01:12:50;;;;;;;2.40;1.60;;;23.10;99.90;;;;;;5138347;27;20430;-57
2021/08/16 01:15:18;;;;;;;5.90;2.00;;;23.20;99.90;;;;;;5135733;27;20420;-59
2021/08/16 01:17:46;;;;;;;4.10;1.50;;;23.20;99.90;;;;;;5138075;27;20512;-57
2021/08/16 01:20:15;;;;;;;2.60;1.77;;;23.20;99.90;;;;;;5137632;27;20418;-57
2021/08/16 01:22:42;;;;;;;3.00;1.70;;;23.30;99.90;;;;;;5134862;27;20421;-59
2021/08/16 01:25:11;;;;;;;2.00;1.42;;;23.30;99.90;;;;;;5133943;27;20901;-57
2021/08/16 01:27:40;;;;;;;1.90;1.38;;;23.20;99.90;;;;;;5134979;27;20521;-57
2021/08/16 01:30:10;;;;;;;2.35;1.80;;;23.20;99.90;;;;;;5135706;27;20814;-59
2021/08/16 01:32:37;;;;;;;1.50;1.40;;;23.20;99.90;;;;;;5134712;27;20533;-58
2021/08/16 01:35:05;;;;;;;2.90;1.83;;;23.10;99.90;;;;;;5135285;27;20508;-58
2021/08/16 01:37:31;;;;;;;2.40;1.90;;;23.10;99.90;;;;;;5138139;27;20422;-59
2021/08/16 01:39:58;;;;;;;2.50;1.80;;;23.10;99.90;;;;;;5137718;27;20417;-58
2021/08/16 01:42:25;;;;;;;4.67;1.70;;;23.10;99.90;;;;;;5137344;27;20423;-59
2021/08/16 01:44:54;;;;;;;3.08;2.25;;;23.10;99.90;;;;;;5137660;27;20417;-58
2021/08/16 01:47:20;;;;;;;3.45;2.33;;;22.90;99.90;;;;;;5137139;27;20418;-59
2021/08/16 01:49:47;;;;;;;3.45;2.05;;;22.80;99.90;;;;;;5136768;27;20729;-58
2021/08/16 01:52:14;;;;;;;2.88;2.33;;;22.80;99.90;;;;;;5135596;27;20486;-59
2021/08/16 01:54:41;;;;;;;2.08;1.80;;;22.70;99.90;;;;;;5134951;27;20415;-58
2021/08/16 01:57:08;;;;;;;2.63;2.42;;;22.70;99.90;;;;;;5136134;27;20427;-58
2021/08/16 01:59:35;;;;;;;2.53;2.17;;;22.70;99.90;;;;;;5136433;27;20713;-58
2021/08/16 02:02:04;;;;;;;2.90;2.60;;;22.70;99.90;;;;;;5135667;27;20422;-58
2021/08/16 02:04:31;;;;;;;4.37;2.23;;;22.70;99.90;;;;;;5134897;27;20450;-58
2021/08/16 02:06:58;;;;;;;2.60;2.05;;;22.70;99.90;;;;;;5136618;27;20429;-58
2021/08/16 02:09:24;;;;;;;4.38;2.88;;;22.70;99.90;;;;;;5136074;27;20771;-58
2021/08/16 02:11:51;;;;;;;2.80;2.50;;;22.70;99.90;;;;;;5135951;27;20414;-58
2021/08/16 02:14:18;;;;;;;2.08;1.63;;;22.70;99.90;;;;;;5135511;27;20730;-58
2021/08/16 02:16:46;;;;;;;3.55;2.10;;;22.60;99.90;;;;;;5135727;27;20431;-58
2021/08/16 02:19:14;;;;;;;6.20;2.20;;;22.70;99.90;;;;;;5135203;27;20411;-58
2021/08/16 02:21:41;;;;;;;3.20;2.55;;;22.60;99.90;;;;;;5135506;27;20461;-58
2021/08/16 02:24:08;;;;;;;2.67;2.10;;;22.60;99.90;;;;;;5136697;27;20417;-58
2021/08/16 02:26:35;;;;;;;3.10;2.35;;;22.60;99.90;;;;;;5137032;27;20528;-59
2021/08/16 02:29:02;;;;;;;3.20;2.20;;;22.60;99.90;;;;;;5137296;27;20421;-62
2021/08/16 02:31:29;;;;;;;2.40;2.20;;;22.50;99.90;;;;;;5137155;27;20839;-59
2021/08/16 02:33:56;;;;;;;4.55;2.22;;;22.40;99.90;;;;;;5136804;27;20430;-58
2021/08/16 02:36:24;;;;;;;3.20;2.13;;;22.40;99.90;;;;;;5136571;27;20779;-58
2021/08/16 02:38:51;;;;;;;3.15;2.50;;;22.30;99.90;;;;;;5136369;27;20489;-58
2021/08/16 02:41:18;;;;;;;3.30;2.53;;;22.20;99.90;;;;;;5135731;27;20520;-58
2021/08/16 02:43:45;;;;;;;3.33;2.80;;;22.10;99.90;;;;;;5134957;27;20817;-58
2021/08/16 02:46:12;;;;;;;3.20;2.38;;;22.00;99.90;;;;;;5135943;27;20422;-58
2021/08/16 02:48:39;;;;;;;3.92;2.22;;;22.00;99.90;;;;;;5136005;27;20418;-58
2021/08/16 02:51:06;;;;;;;3.67;2.40;;;21.90;99.90;;;;;;5134720;27;20418;-58
2021/08/16 02:53:34;;;;;;;3.38;2.45;;;21.80;99.90;;;;;;5134080;27;20802;-58
2021/08/16 02:56:01;;;;;;;3.40;2.50;;;21.70;99.90;;;;;;5134133;27;20414;-58
2021/08/16 02:58:28;;;;;;;2.28;2.08;;;21.70;99.90;;;;;;5134559;27;20445;-58
2021/08/16 03:00:55;;;;;;;3.20;2.20;;;21.60;99.90;;;;;;5134218;27;20415;-58
2021/08/16 03:03:22;;;;;;;3.55;2.33;;;21.50;99.90;;;;;;5132854;27;20577;-58
2021/08/16 03:05:49;;;;;;;2.30;2.10;;;21.50;99.90;;;;;;5132933;27;20437;-58
2021/08/16 03:08:16;;;;;;;2.90;2.10;;;21.50;99.90;;;;;;5133685;27;20419;-58
2021/08/16 03:10:45;;;;;;;2.33;1.90;;;21.60;99.90;;;;;;5135258;27;20506;-57
2021/08/16 03:13:12;;;;;;;2.60;2.03;;;21.50;99.90;;;;;;5134436;27;20432;-58
2021/08/16 03:15:39;;;;;;;2.90;2.17;;;21.40;99.90;;;;;;5134642;27;20840;-58
2021/08/16 03:18:05;;;;;;;2.60;2.13;;;21.30;99.90;;;;;;5133898;27;20554;-57
2021/08/16 03:20:32;;;;;;;4.30;2.63;;;21.30;99.90;;;;;;5133411;27;20428;-58
2021/08/16 03:22:59;;;;;;;4.93;2.75;;;21.20;99.90;;;;;;5134283;27;20418;-58
2021/08/16 03:25:26;;;;;;;4.47;2.50;;;21.20;99.90;;;;;;5133289;27;20420;-58
2021/08/16 03:27:55;;;;;;;3.58;3.00;;;21.10;99.90;;;;;;5133061;27;20853;-57
2021/08/16 03:30:22;;;;;;;4.80;2.45;;;21.10;99.90;;;;;;5133296;27;20716;-58
2021/08/16 03:32:48;;;;;;;4.30;2.47;;;21.10;99.90;;;;;;5133235;27;20565;-58
2021/08/16 03:35:16;;;;;;;3.85;2.63;;;21.20;99.90;;;;;;5132971;28;20490;-58
2021/08/16 03:37:43;;;;;;;3.70;2.80;;;21.20;99.90;;;;;;5133370;28;20525;-58
2021/08/16 03:40:12;;;;;;;3.58;2.70;;;21.10;99.90;;;;;;5134306;28;20407;-58
2021/08/16 03:42:39;;;;;;;4.05;2.40;;;21.10;99.90;;;;;;5134689;28;20422;-58
2021/08/16 03:45:10;;;;;;;3.67;2.80;;;21.10;99.90;;;;;;5134346;28;20411;-58
2021/08/16 03:47:37;;;;;;;4.25;3.15;;;21.10;99.90;;;;;;5133878;27;20421;-58
2021/08/16 03:50:05;;;;;;;3.60;2.50;;;21.20;99.90;;;;;;5134260;28;20688;-58
2021/08/16 03:52:32;;;;;;;3.13;2.67;;;21.30;99.90;;;;;;5134001;28;20428;-57
2021/08/16 03:54:59;;;;;;;2.83;2.25;;;21.30;99.90;;;;;;5136476;27;20462;-58
2021/08/16 03:57:26;;;;;;;4.05;2.50;;;21.40;99.90;;;;;;5136873;27;20428;-58
2021/08/16 03:59:53;;;;;;;3.60;2.38;;;21.40;99.90;;;;;;5135817;27;20420;-58
2021/08/16 04:02:22;;;;;;;2.87;2.10;;;21.50;99.90;;;;;;5138291;27;20577;-59
2021/08/16 04:04:48;;;;;;;3.70;2.30;;;21.60;99.90;;;;;;5138268;27;20407;-58
2021/08/16 04:07:16;;;;;;;5.60;2.20;;;21.90;99.90;;;;;;5138422;27;20423;-58
2021/08/16 04:09:42;;;;;;;3.92;1.80;;;22.00;99.90;;;;;;5138429;27;20501;-58
2021/08/16 04:12:10;;;;;;;3.50;1.75;;;22.00;99.90;;;;;;5139048;27;20422;-60
2021/08/16 04:14:37;;;;;;;2.20;1.63;;;22.10;99.90;;;;;;5139119;27;20433;-58
2021/08/16 04:17:04;;;;;;;2.75;1.70;;;22.00;99.90;;;;;;5137408;27;20517;-58
2021/08/16 04:19:33;;;;;;;2.33;1.70;;;22.20;99.90;;;;;;5136754;27;20418;-58
2021/08/16 04:21:59;;;;;;;2.05;1.70;;;22.30;99.90;;;;;;5136468;27;20414;-58
2021/08/16 04:24:26;;;;;;;2.00;1.70;;;22.40;99.90;;;;;;5137118;27;20477;-58
2021/08/16 04:26:53;;;;;;;3.50;1.70;;;22.40;99.90;;;;;;5137547;27;20426;-58
2021/08/16 04:29:20;;;;;;;2.17;1.60;;;22.40;99.90;;;;;;5137904;27;20417;-58
2021/08/16 04:31:47;;;;;;;3.40;1.80;;;22.50;99.90;;;;;;5139172;27;20790;-58
2021/08/16 04:34:14;;;;;;;1.77;1.30;;;22.50;99.90;;;;;;5138589;27;20513;-59
2021/08/16 04:36:42;;;;;;;1.80;1.40;;;22.50;99.90;;;;;;5138985;27;20428;-59
2021/08/16 04:39:09;;;;;;;3.60;1.45;;;22.40;99.90;;;;;;5139024;27;20726;-59
2021/08/16 04:41:36;;;;;;;1.55;1.40;;;22.30;99.90;;;;;;5138949;27;20422;-59
2021/08/16 04:44:03;;;;;;;3.15;1.70;;;22.40;99.90;;;;;;5137794;27;20425;-58
2021/08/16 04:46:30;;;;;;;2.25;1.70;;;22.30;99.90;;;;;;5138794;27;20429;-59
2021/08/16 04:48:57;;;;;;;2.10;1.40;;;22.30;99.90;;;;;;5138702;27;20411;-59
2021/08/16 04:51:24;;;;;;;1.80;1.45;;;22.10;99.90;;;;;;5139317;27;20429;-59
2021/08/16 04:53:52;;;;;;;2.60;2.15;;;22.20;99.90;;;;;;5139064;27;20426;-59
2021/08/16 04:56:19;;;;;;;1.98;1.40;;;22.20;99.90;;;;;;5138246;27;20525;-58
2021/08/16 04:58:46;;;;;;;2.00;1.30;;;22.00;99.90;;;;;;5138764;27;20420;-59
2021/08/16 05:01:13;;;;;;;4.20;1.52;;;22.00;99.90;;;;;;5138584;27;20507;-59
2021/08/16 05:03:40;;;;;;;1.90;1.30;;;21.80;99.90;;;;;;5138714;27;20406;-59
2021/08/16 05:06:07;;;;;;;2.72;1.48;;;21.70;99.90;;;;;;5137598;27;20419;-58
2021/08/16 05:08:35;;;;;;;1.70;1.30;;;21.70;99.90;;;;;;5137615;27;20867;-59
2021/08/16 05:11:04;;;;;;;2.20;1.30;;;21.80;99.90;;;;;;5135958;27;20541;-59
2021/08/16 05:13:31;;;;;;;2.53;1.30;;;21.90;99.90;;;;;;5137177;27;20860;-59
2021/08/16 05:15:58;;;;;;;1.90;1.20;;;21.80;99.90;;;;;;5137576;27;20486;-59
2021/08/16 05:18:25;;;;;;;1.92;1.10;;;22.00;99.90;;;;;;5137171;27;20421;-59
2021/08/16 05:20:52;;;;;;;1.60;1.10;;;21.90;99.90;;;;;;5135829;27;20433;-59
2021/08/16 05:23:19;;;;;;;1.80;1.20;;;22.00;99.90;;;;;;5139965;27;20433;-59
2021/08/16 05:25:47;;;;;;;1.40;1.30;;;22.00;99.90;;;;;;5144424;27;20782;-59
2021/08/16 05:28:15;;;;;;;2.80;1.70;;;22.10;99.90;;;;;;5157755;27;20499;-59
2021/08/16 05:30:42;;;;;;;2.00;1.30;;;22.10;99.90;;;;;;5159214;27;20846;-54
2021/08/16 05:33:09;;;;;;;2.13;1.10;;;22.20;99.90;;;;;;5155665;27;20565;-59
2021/08/16 05:35:36;;;;;;;3.40;1.20;;;22.10;99.90;;;;;;5157891;27;20424;-59
2021/08/16 05:38:04;;;;;;;2.00;1.20;;;21.90;99.90;;;;;;5158090;27;20420;-58
2021/08/16 05:40:31;;;;;;;2.10;1.10;;;22.00;99.90;;;;;;5157197;27;20749;-59
2021/08/16 05:42:57;;;;;;;2.10;1.10;;;21.90;99.90;;;;;;5157049;27;20425;-59
2021/08/16 05:45:26;;;;;;;1.60;1.10;;;22.00;99.90;;;;;;5157165;27;20724;-59
2021/08/16 05:47:53;;;;;;;2.13;1.10;;;22.10;99.90;;;;;;5156762;27;20854;-59
2021/08/16 05:50:22;;;;;;;1.85;1.00;;;21.90;99.90;;;;;;5156193;27;20411;-60
2021/08/16 05:52:49;;;;;;;1.65;1.00;;;21.80;99.90;;;;;;5157599;27;20446;-60
2021/08/16 05:55:16;;;;;;;1.75;1.10;;;21.80;99.90;;;;;;5157483;27;20435;-59
2021/08/16 05:57:43;;;;;;;1.55;1.20;;;21.80;99.90;;;;;;5157465;27;20421;-59
2021/08/16 06:00:11;;;;;;;2.00;1.10;;;22.00;99.90;;;;;;5157386;27;20507;-60
2021/08/16 06:02:39;;;;;;;1.57;1.00;;;22.10;99.90;;;;;;5156571;27;20494;-60
2021/08/16 06:05:07;;;;;;;2.40;1.10;;;22.20;99.90;;;;;;5157487;27;20415;-59
2021/08/16 06:07:34;;;;;;;1.60;1.00;;;22.20;99.90;;;;;;5158007;27;20477;-59
2021/08/16 06:10:01;;;;;;;1.90;1.10;;;22.20;99.90;;;;;;5156873;27;20686;-60
2021/08/16 06:12:28;;;;;;;1.80;1.10;;;22.20;99.90;;;;;;5156704;27;20420;-59
2021/08/16 06:14:55;;;;;;;1.50;1.00;;;22.30;99.90;;;;;;5156956;27;20416;-58
2021/08/16 06:17:21;;;;;;;1.40;1.00;;;22.50;99.90;;;;;;5155875;27;20431;-58
2021/08/16 06:19:50;;;;;;;1.60;1.08;;;22.50;99.90;;;;;;5156930;27;20495;-58
2021/08/16 06:22:16;;;;;;;2.60;1.00;;;22.60;99.90;;;;;;5135703;27;20422;-59
2021/08/16 06:24:44;;;;;;;1.80;1.00;;;22.60;99.90;;;;;;5133298;27;20619;-58
2021/08/16 06:27:10;;;;;;;3.05;0.90;;;22.60;99.90;;;;;;5132785;27;20585;-58
2021/08/16 06:29:37;;;;;;;1.23;0.82;;;22.40;99.90;;;;;;5131778;27;20417;-60
2021/08/16 06:32:05;;;;;;;2.30;0.90;;;22.20;99.90;;;;;;5134531;27;20422;-60
2021/08/16 06:34:32;;;;;;;1.50;0.90;;;22.30;99.90;;;;;;5135078;27;20565;-60
2021/08/16 06:37:00;;;;;;;1.45;0.90;;;22.20;99.90;;;;;;5136458;27;20730;-60
2021/08/16 06:39:28;;;;;;;1.80;0.90;;;22.00;99.90;;;;;;5135278;27;20538;-61
2021/08/16 06:41:56;;;;;;;1.30;0.90;;;22.10;99.90;;;;;;5135017;27;20569;-61
2021/08/16 06:44:26;;;;;;;1.55;0.90;;;22.10;99.90;;;;;;5135803;27;20449;-60
2021/08/16 06:46:53;;;;;;;1.40;0.90;;;22.30;99.90;;;;;;5134793;27;20550;-59
2021/08/16 06:49:20;;;;;;;1.50;0.90;;;22.10;99.90;;;;;;5133208;27;20421;-60
2021/08/16 06:51:48;;;;;;;1.70;0.90;;;22.20;99.90;;;;;;5130356;27;20521;-59
2021/08/16 06:54:16;;;;;;;1.50;0.90;;;22.10;99.90;;;;;;5132578;27;20426;-60
2021/08/16 06:56:43;;;;;;;1.10;0.80;;;21.90;99.90;;;;;;5130388;27;20709;-61
2021/08/16 06:59:10;;;;;;;1.30;0.90;;;22.00;99.90;;;;;;5129780;27;20414;-61
2021/08/16 07:01:37;;;;;;;1.10;0.80;;;22.00;99.90;;;;;;5127395;27;20429;-60
2021/08/16 07:04:04;;;;;;;1.30;0.90;;;21.90;99.90;;;;;;5128240;27;20697;-61
2021/08/16 07:06:31;;;;;;;1.60;0.90;;;22.30;99.90;;;;;;5129389;27;20417;-61
2021/08/16 07:08:58;;;;;;;1.30;0.90;;;22.60;99.90;;;;;;5129489;27;20450;-63
2021/08/16 07:11:26;;;;;;;1.83;0.80;;;22.70;99.90;;;;;;5129099;27;20429;-61
2021/08/16 07:13:53;;;;;;;2.55;0.80;;;22.30;99.90;;;;;;5131476;27;20421;-63
2021/08/16 07:16:21;;;;;;;1.15;0.70;;;22.40;99.90;;;;;;5132771;27;20793;-63
2021/08/16 07:18:48;;;;;;;2.00;0.80;;;22.60;99.90;;;;;;5132894;27;20707;-63
2021/08/16 07:21:15;;;;;;;1.60;0.80;;;22.60;99.90;;;;;;5146007;27;20739;-62
2021/08/16 07:23:42;;;;;;;1.70;0.70;;;22.60;99.90;;;;;;5155565;27;20891;-62
2021/08/16 07:26:09;;;;;;;1.40;0.90;;;22.70;99.90;;;;;;5153439;27;20409;-63
2021/08/16 07:28:37;;;;;;;1.13;0.70;;;22.70;99.90;;;;;;5154612;27;20404;-62
2021/08/16 07:31:05;;;;;;;1.60;0.90;;;22.70;99.90;;;;;;5140442;27;20726;-61
2021/08/16 07:33:32;;;;;;;2.30;1.50;;;22.70;99.90;;;;;;5135954;27;20463;-63
2021/08/16 07:35:59;;;;;;;1.40;0.70;;;22.70;99.90;;;;;;5133684;28;20513;-62
2021/08/16 07:38:26;;;;;;;1.38;0.70;;;22.90;99.90;;;;;;5134306;28;20414;-62
2021/08/16 07:40:53;;;;;;;1.70;0.70;;;23.00;99.90;;;;;;5133533;28;20425;-63
2021/08/16 07:43:21;;;;;;;1.43;0.70;;;23.20;99.90;;;;;;5134017;28;20441;-62
2021/08/16 07:45:49;;;;;;;2.30;0.77;;;23.20;99.90;;;;;;5134790;28;20552;-61
2021/08/16 07:48:17;;;;;;;1.23;0.70;;;23.40;99.90;;;;;;5146425;27;20421;-62
2021/08/16 07:50:44;;;;;;;1.10;0.70;;;23.50;99.90;;;;;;5152669;27;20480;-61
2021/08/16 07:53:11;;;;;;;0.90;0.60;;;23.40;99.90;;;;;;5152313;27;20831;-63
2021/08/16 07:55:38;;;;;;;1.20;0.60;;;23.30;99.90;;;;;;5149302;27;20436;-62
2021/08/16 07:58:05;;;;;;;1.23;0.68;;;23.20;99.90;;;;;;5155208;27;20727;-62
2021/08/16 08:00:32;;;;;;;1.00;0.60;;;23.30;99.90;;;;;;5154552;27;20421;-62
2021/08/16 08:03:00;;;;;;;1.60;0.70;;;23.00;99.90;;;;;;5154963;27;20862;-63
2021/08/16 08:05:27;;;;;;;1.20;0.60;;;23.00;99.90;;;;;;5156839;27;20821;-63
2021/08/16 08:07:54;;;;;;;0.98;0.70;;;22.90;99.90;;;;;;5157171;27;20456;-63
2021/08/16 08:10:22;;;;;;;1.40;0.70;;;22.80;99.90;;;;;;5155810;27;20484;-63
2021/08/16 08:12:50;;;;;;;1.60;0.60;;;22.90;99.90;;;;;;5156000;27;20424;-63
2021/08/16 08:15:18;;;;;;;0.90;0.70;;;23.00;99.90;;;;;;5156064;27;20424;-63
2021/08/16 08:17:45;;;;;;;2.10;0.70;;;23.20;99.90;;;;;;5155791;27;20421;-63
2021/08/16 08:20:14;;;;;;;0.93;0.60;;;23.40;99.90;;;;;;5153280;27;20470;-62
2021/08/16 08:22:41;;;;;;;1.20;0.70;;;23.60;99.90;;;;;;5155555;27;20427;-63
2021/08/16 08:25:09;;;;;;;1.05;0.60;;;23.70;99.90;;;;;;5154845;27;20763;-63
2021/08/16 08:27:36;;;;;;;1.15;0.70;;;23.70;99.90;;;;;;5157027;27;20424;-62
2021/08/16 08:30:04;;;;;;;1.10;0.60;;;24.10;99.90;;;;;;5156246;27;20421;-60
2021/08/16 08:32:31;;;;;;;1.30;0.80;;;24.30;99.90;;;;;;5155828;27;20430;-62
2021/08/16 08:34:58;;;;;;;1.10;0.60;;;24.30;99.90;;;;;;5155889;27;20432;-61
2021/08/16 08:37:26;;;;;;;3.05;0.65;;;24.50;99.90;;;;;;5154341;27;20425;-61
2021/08/16 08:39:53;;;;;;;1.20;0.70;;;24.40;99.90;;;;;;5154777;27;20413;-62
2021/08/16 08:42:20;;;;;;;1.85;0.70;;;24.30;99.90;;;;;;5157625;27;20484;-61
2021/08/16 08:44:47;;;;;;;1.80;0.60;;;24.20;99.90;;;;;;5159092;27;20819;-62
2021/08/16 08:47:14;;;;;;;1.00;0.70;;;24.00;99.90;;;;;;5157748;27;20417;-61
2021/08/16 08:49:42;;;;;;;1.70;0.70;;;23.80;99.90;;;;;;5158742;27;20855;-61
2021/08/16 08:52:09;;;;;;;0.80;0.60;;;23.70;99.90;;;;;;5160343;27;20413;-62
2021/08/16 08:54:37;;;;;;;0.90;0.60;;;23.90;99.90;;;;;;5160054;27;20899;-61
2021/08/16 08:57:05;;;;;;;1.03;0.70;;;24.10;99.90;;;;;;5158722;27;20854;-61
2021/08/16 08:59:33;;;;;;;1.70;0.70;;;23.80;99.90;;;;;;5159484;27;20427;-61
2021/08/16 09:02:02;;;;;;;2.13;0.70;;;23.60;99.90;;;;;;5159937;27;20421;-61
2021/08/16 09:04:31;;;;;;;1.20;0.63;;;23.80;99.90;;;;;;5159985;27;20404;-62
2021/08/16 09:06:59;;;;;;;1.02;0.60;;;23.90;99.90;;;;;;5159326;27;20424;-62
2021/08/16 09:09:27;;;;;;;1.00;0.70;;;24.00;99.90;;;;;;5158931;27;20519;-62
2021/08/16 09:11:55;;;;;;;1.40;0.60;;;24.00;99.90;;;;;;5158607;27;20427;-62
2021/08/16 09:14:22;;;;;;;1.30;0.70;;;24.00;99.90;;;;;;5157618;27;20481;-60
2021/08/16 09:16:49;;;;;;;1.63;0.70;;;24.20;99.90;;;;;;5157286;27;20425;-59
2021/08/16 09:19:18;;;;;;;1.60;0.70;;;24.20;99.90;;;;;;5157282;27;20511;-59
2021/08/16 09:21:54;;;;;;;2.10;0.73;;;23.80;99.90;;;;;;5157263;27;20417;-59
2021/08/16 09:24:25;;;;;;;1.40;0.70;;;24.00;99.90;;;;;;5158048;27;20423;-60
2021/08/16 09:26:52;;;;;;;1.00;0.65;;;23.70;99.90;;;;;;5158576;27;20507;-61
2021/08/16 09:29:22;;;;;;;1.10;0.70;;;23.70;99.90;;;;;;5158010;27;20824;-61
2021/08/16 09:31:55;;;;;;;1.20;0.63;;;24.00;99.90;;;;;;5158426;27;20425;-60
2021/08/16 09:34:30;;;;;;;1.48;0.68;;;24.10;99.90;;;;;;5158180;27;20412;-59
2021/08/16 09:37:01;;;;;;;1.73;0.80;;;24.10;99.90;;;;;;5157680;27;20419;-60
2021/08/16 09:39:31;;;;;;;1.70;0.70;;;24.00;99.90;;;;;;5156257;27;20514;-61
2021/08/16 09:41:59;;;;;;;1.80;0.80;;;24.00;99.90;;;;;;5156126;27;20724;-62
2021/08/16 09:44:28;;;;;;;1.40;0.70;;;24.00;99.90;;;;;;5157678;27;20519;-60
2021/08/16 09:47:03;;;;;;;2.10;0.60;;;23.90;99.90;;;;;;5158024;27;20724;-62
2021/08/16 09:49:30;;;;;;;1.10;0.60;;;23.90;99.90;;;;;;5157046;27;20704;-64
2021/08/16 09:52:05;;;;;;;1.20;0.70;;;23.80;99.90;;;;;;5154599;27;20423;-64
2021/08/16 09:54:33;;;;;;;1.60;0.70;;;23.50;99.90;;;;;;5155311;27;20413;-64
2021/08/16 09:57:01;;;;;;;1.50;0.60;;;23.60;99.90;;;;;;5155559;27;20715;-64
2021/08/16 09:59:30;;;;;;;1.35;0.68;;;23.80;99.90;;;;;;5154191;27;20704;-64
2021/08/16 10:01:58;;;;;;;0.80;0.60;;;24.10;99.90;;;;;;5153264;27;20417;-64
2021/08/16 10:04:25;;;;;;;1.00;0.60;;;23.90;99.90;;;;;;5153723;27;20708;-63
2021/08/16 10:06:54;;;;;;;3.17;0.80;;;23.70;99.90;;;;;;5154414;27;20854;-63
2021/08/16 10:09:24;;;;;;;1.50;0.70;;;23.40;99.90;;;;;;5154442;27;20416;-63
2021/08/16 10:11:51;;;;;;;1.60;0.60;;;23.50;99.90;;;;;;5155541;27;20440;-64
2021/08/16 10:14:21;;;;;;;1.00;0.60;;;23.90;99.90;;;;;;5155187;27;20411;-65
2021/08/16 10:16:53;;;;;;;1.20;0.60;;;24.00;99.90;;;;;;5155834;27;20437;-63
2021/08/16 10:19:24;;;;;;;1.33;0.65;;;24.20;99.90;;;;;;5156693;27;20445;-64
2021/08/16 10:21:52;;;;;;;1.10;0.60;;;24.30;99.90;;;;;;5155520;27;20464;-64
2021/08/16 10:24:21;;;;;;;1.00;0.50;;;24.30;99.90;;;;;;5155957;27;20444;-63
2021/08/16 10:27:00;;;;;;;1.50;0.90;;;24.30;99.90;;;;;;5153832;27;20803;-64
2021/08/16 10:29:28;;;;;;;1.42;0.70;;;24.30;99.90;;;;;;5154777;27;20456;-64
2021/08/16 10:31:56;;;;;;;0.90;0.60;;;24.20;99.90;;;;;;5153665;27;20425;-65
2021/08/16 10:34:34;;;;;;;1.20;0.60;;;24.10;99.90;;;;;;5154130;27;20419;-65
2021/08/16 10:37:04;;;;;;;1.25;0.50;;;24.10;99.90;;;;;;5153876;27;20432;-64
2021/08/16 10:39:34;;;;;;;1.95;0.70;;;24.10;99.90;;;;;;5154733;27;20757;-64
2021/08/16 10:42:06;;;;;;;1.13;0.60;;;24.20;99.90;;;;;;5154482;27;20447;-64
2021/08/16 10:44:39;;;;;;;1.10;0.70;;;24.10;99.90;;;;;;5154138;27;20420;-63
2021/08/16 10:47:08;;;;;;;2.00;0.60;;;24.20;99.90;;;;;;5155994;27;20428;-65
2021/08/16 10:49:37;;;;;;;1.33;0.70;;;24.20;99.90;;;;;;5155249;27;20416;-63
2021/08/16 10:52:04;;;;;;;0.90;0.50;;;24.10;99.90;;;;;;5154840;27;20431;-63
2021/08/16 10:54:33;;;;;;;1.48;0.50;;;24.00;99.90;;;;;;5153380;27;20412;-64
2021/08/16 10:57:01;;;;;;;1.20;0.60;;;24.20;99.90;;;;;;5155312;27;20436;-64
2021/08/16 10:59:30;;;;;;;1.70;0.60;;;24.30;99.90;;;;;;5152888;27;20719;-63
2021/08/16 11:01:58;;;;;;;0.97;0.53;;;24.60;99.90;;;;;;5154291;27;20424;-65
2021/08/16 11:04:31;;;;;;;1.10;0.60;;;24.50;99.90;;;;;;5155005;27;20473;-64
2021/08/16 11:07:01;;;;;;;1.60;0.60;;;24.60;99.90;;;;;;5156040;27;20461;-64
2021/08/16 11:09:29;;;;;;;1.90;0.60;;;24.30;99.90;;;;;;5151745;27;20537;-63
2021/08/16 11:12:02;;;;;;;1.40;0.60;;;24.50;99.90;;;;;;5154787;27;20424;-64
2021/08/16 11:14:30;;;;;;;1.60;0.60;;;24.50;99.90;;;;;;5156437;27;20794;-64
2021/08/16 11:16:58;;;;;;;3.00;0.60;;;25.10;99.90;;;;;;5155197;27;20851;-65
2021/08/16 11:19:26;;;;;;;1.58;0.50;;;25.40;99.90;;;;;;5155549;27;20427;-64
2021/08/16 11:21:55;;;;;;;0.98;0.60;;;25.00;99.90;;;;;;5156049;27;20433;-66
2021/08/16 11:24:29;;;;;;;1.80;0.50;;;24.90;99.90;;;;;;5153136;27;20481;-65
2021/08/16 11:26:56;;;;;;;0.93;0.50;;;25.30;99.90;;;;;;5151060;27;20509;-65
2021/08/16 11:29:24;;;;;;;1.60;0.60;;;25.50;99.90;;;;;;5146769;27;20553;-65
2021/08/16 11:31:52;;;;;;;1.10;0.60;;;25.70;99.90;;;;;;5149071;27;20856;-65
2021/08/16 11:34:20;;;;;;;1.30;0.55;;;25.60;99.90;;;;;;5148953;27;20835;-65
2021/08/16 11:36:46;;;;;;;1.00;0.50;;;25.70;99.90;;;;;;5149139;27;20492;-65
2021/08/16 11:39:14;;;;;;;1.90;0.60;;;25.30;99.90;;;;;;5150611;27;20419;-65
2021/08/16 11:41:42;;;;;;;1.67;0.60;;;24.60;99.90;;;;;;5153774;27;20511;-65
2021/08/16 11:44:13;;;;;;;0.90;0.50;;;24.70;99.90;;;;;;5152381;27;20420;-65
2021/08/16 11:46:40;;;;;;;1.00;0.50;;;25.00;99.90;;;;;;5154603;27;20749;-65
2021/08/16 11:49:10;;;;;;;2.10;0.50;;;25.30;99.90;;;;;;5152624;27;20421;-65
2021/08/16 11:51:38;;;;;;;1.10;0.50;;;25.70;99.90;;;;;;5153527;27;20428;-65
2021/08/16 11:54:05;;;;;;;1.00;0.60;;;25.50;99.90;;;;;;5154030;27;20716;-67
2021/08/16 11:56:33;;;;;;;1.50;0.50;;;25.10;99.90;;;;;;5153908;27;20455;-66
2021/08/16 11:59:00;;;;;;;1.00;0.50;;;25.60;99.90;;;;;;5153090;27;20408;-66
2021/08/16 12:01:27;;;;;;;1.10;0.60;;;26.20;99.90;;;;;;5153232;27;20723;-66
2021/08/16 12:04:02;;;;;;;1.70;0.60;;;26.90;99.90;;;;;;5152937;27;20417;-66
2021/08/16 12:06:30;;;;;;;1.42;0.60;;;27.10;99.90;;;;;;5153530;27;20416;-66
2021/08/16 12:09:05;;;;;;;1.27;0.60;;;27.10;99.90;;;;;;5152299;27;20485;-67
2021/08/16 12:11:34;;;;;;;1.67;0.70;;;26.80;99.90;;;;;;5152358;27;20439;-66
2021/08/16 12:14:01;;;;;;;1.80;0.70;;;25.70;99.90;;;;;;5151700;27;20685;-66
2021/08/16 12:16:30;;;;;;;1.80;0.57;;;25.60;99.90;;;;;;5157020;27;20533;-66
2021/08/16 12:18:57;;;;;;;1.70;0.50;;;25.80;99.90;;;;;;5157263;27;20420;-65
2021/08/16 12:21:25;;;;;;;1.00;0.50;;;25.60;99.90;;;;;;5156388;27;20419;-63
2021/08/16 12:23:56;;;;;;;2.03;0.50;;;25.30;99.90;;;;;;5141271;27;20510;-62
2021/08/16 12:26:33;;;;;;;0.95;0.60;;;25.20;99.90;;;;;;5138157;27;20849;-62
2021/08/16 12:29:01;;;;;;;1.05;0.60;;;25.40;99.90;;;;;;5136706;27;20933;-62
2021/08/16 12:31:29;;;;;;;1.50;0.60;;;25.90;99.90;;;;;;5138144;27;20779;-62
2021/08/16 12:33:58;;;;;;;0.90;0.50;;;25.50;99.90;;;;;;5137765;27;20458;-62
2021/08/16 12:36:27;;;;;;;1.40;0.57;;;25.40;99.90;;;;;;5135409;27;20853;-62
2021/08/16 12:39:00;;;;;;;0.90;0.50;;;25.30;99.90;;;;;;5135654;27;20424;-62
2021/08/16 12:41:29;;;;;;;0.95;0.52;;;25.10;99.90;;;;;;5134849;27;20423;-65
2021/08/16 12:43:58;;;;;;;1.00;0.60;;;25.20;99.90;;;;;;5135854;27;20425;-66
2021/08/16 12:46:29;;;;;;;1.60;0.60;;;25.00;99.90;;;;;;5136501;27;20539;-65
2021/08/16 12:48:57;;;;;;;1.40;0.60;;;25.10;99.90;;;;;;5135517;27;20411;-65
2021/08/16 12:51:25;;;;;;;1.55;0.60;;;24.90;99.90;;;;;;5137277;27;20422;-65